< < Back
Terminal Aerodrome Forecast


Current Version              Previous Versions:   1  2  3  4  5  6  7  8  9  

Terminal Aerodrome Forecast

570
FTUS42 KGSP 292046 AAA
TAFCLT
TAF AMD
KCLT 292046Z 2921/3018 18006KT P6SM SCT040 BKN080
      TEMPO 2921/2923 VRB10G20KT 4SM TSRA BKN040CB
     FM292300 00000KT P6SM BKN050
     FM301100 00000KT 5SM BR BKN040
     FM301300 00000KT P6SM SCT020
     FM301500 00000KT P6SM BKN050=



Latest METAR

723
SAUS70 KWBC 292200 RRA
MTRCLT
METAR KCLT 292152Z 13006KT 10SM FEW046TCU SCT090 BKN250 31/21 A2995 RMK
AO2 SLP132 TCU SW-W T03060211


USA.gov is the U.S. government's official web portal to all federal, state and local government web resources and services.